Track Цветков Леонид

Time Latitude Longitude Accuracy (66% radius in meters) Altitude (meters) Speed (km/hour) Bearing (degrees) Battery (%) GPS flag
07:45:55 55.920994 37.361512 4 183 0 326.6064453125 80 1 delete
07:44:14 55.921044 37.361524 6 174 0.30556610226631 277.09799194336 80 1 delete
07:44:07 55.921033 37.361605 6 177 0.99902421236038 258.7864074707 80 1 delete
07:44:02 55.921053 37.361692 4 175 0.82114607095718 254.84887695312 80 1 delete
07:43:58 55.921075 37.361776 6 174 0.5637611746788 249.32342529297 80 1 delete
07:39:33 55.921105 37.361860 6 180 0 357.98690795898 82 1 delete
07:39:17 55.921144 37.361821 6 184 0 154.37568664551 82 1 delete
07:37:29 55.921109 37.361878 4 175 0 194.08654785156 82 1 delete
07:36:19 55.921070 37.361825 6 178 0 170.22886657715 82 1 delete
07:32:19 55.921112 37.361859 4 177 0 50.446380615234 82 1 delete
07:32:03 55.921069 37.361762 4 178 1.9013832807541 39.469631195068 82 1 delete
07:32:00 55.921030 37.361688 4 179 1.8060436248779 42.313659667969 82 1 delete
07:31:57 55.920995 37.361635 6 180 1.6229026317596 35.932662963867 82 1 delete
07:31:54 55.920965 37.361570 4 178 2.8609578609467 56.986351013184 82 1 delete
07:31:52 55.920914 37.361490 4 179 5.2594223022461 30.742233276367 82 1 delete
07:31:51 55.920870 37.361446 4 179 5.4032640457153 32.251949310303 82 1 delete
07:31:50 55.920828 37.361400 4 180 5.7293028831482 35.060554504395 82 1 delete
07:31:49 55.920787 37.361352 4 180 6.0065712928772 36.154872894287 82 1 delete
07:31:48 55.920741 37.361296 4 179 6.5191287994385 37.38943862915 82 1 delete
07:31:47 55.920695 37.361235 4 177 6.5421676635742 37.897571563721 82 1 delete
07:31:46 55.920651 37.361173 4 178 6.2819991111755 36.909362792969 82 1 delete
07:31:45 55.920605 37.361112 4 178 5.9663410186768 35.951358795166 82 1 delete
07:31:44 55.920560 37.361053 4 179 5.5666761398315 36.632263183594 82 1 delete
07:31:43 55.920519 37.361000 4 178 5.3385415077209 36.549880981445 82 1 delete
07:31:41 55.920447 37.360915 4 178 5.0128741264343 12.251565933228 82 1 delete
07:31:40 55.920399 37.360905 6 179 5.88902759552 351.83624267578 82 1 delete
07:31:39 55.920337 37.360925 6 180 6.3919005393982 352.82897949219 82 1 delete
07:31:38 55.920273 37.360946 6 181 6.1323862075806 356.56274414062 82 1 delete
07:31:37 55.920210 37.360958 6 182 5.8279256820679 359.90435791016 82 1 delete
07:31:36 55.920149 37.360965 4 183 5.3273358345032 0.37143820524216 82 1 delete
07:31:35 55.920092 37.360972 4 183 5.2274565696716 1.1782245635986 82 1 delete
07:31:34 55.920040 37.360978 4 182 5.2338690757751 1.5407691001892 82 1 delete
07:31:33 55.919988 37.360980 6 183 5.2813892364502 2.4850881099701 82 1 delete
07:31:32 55.919938 37.360979 6 182 5.2997360229492 5.0908184051514 82 1 delete
07:31:31 55.919887 37.360971 6 181 5.370726108551 7.1188416481018 82 1 delete
07:31:30 55.919836 37.360955 6 182 4.4354667663574 21.841480255127 82 1 delete
07:31:29 55.919785 37.360913 6 180 4.9418711662292 22.747457504272 82 1 delete
07:31:27 55.919698 37.360851 6 177 4.9283852577209 24.384729385376 82 1 delete
07:31:26 55.919656 37.360821 6 178 5.2908339500427 25.006645202637 82 1 delete
07:31:24 55.919570 37.360760 6 177 5.1272087097168 26.987964630127 82 1 delete
07:31:23 55.919526 37.360725 6 177 4.9573464393616 28.397075653076 82 1 delete
07:31:21 55.919444 37.360650 6 176 4.7453489303589 30.199028015137 82 1 delete
07:31:19 55.919378 37.360558 6 175 4.5621399879456 52.530788421631 82 1 delete
07:31:17 55.919334 37.360447 4 175 4.6366510391235 73.295875549316 82 1 delete
07:31:15 55.919315 37.360301 4 175 4.8392357826233 72.266235351562 82 1 delete
07:31:14 55.919304 37.360222 4 175 5.2154579162598 71.060752868652 82 1 delete
07:31:12 55.919277 37.360065 4 173 5.6854581832886 66.217781066895 82 1 delete
07:31:11 55.919262 37.359986 4 172 6.2377991676331 64.571464538574 82 1 delete
07:31:10 55.919243 37.359897 4 171 6.3830556869507 62.38162612915 82 1 delete
07:31:09 55.919220 37.359801 4 171 6.7109341621399 59.593200683594 82 1 delete